Time;durP1;ratioP1;P1;durP2;ratioP2;P2;SDS_P1;SDS_P2;PMS_P1;PMS_P2;Temp;Humidity;BMP_temperature;BMP_pressure;BME280_temperature;BME280_humidity;BME280_pressure;Samples;Min_cycle;Max_cycle;Signal;HPM_P1;HPM_P2
2021/12/04 00:01:50;;;;;;;174.45;46.33;;;;;;;;;;5056501;28;20094;-64
2021/12/04 00:04:24;;;;;;;176.07;50.40;;;;;;;;;;5044334;28;22194;-64
2021/12/04 00:06:51;;;;;;;204.98;49.88;;;;;;;;;;5062548;28;20049;-64
2021/12/04 00:09:18;;;;;;;173.52;48.42;;;;;;;;;;5059744;28;20063;-64
2021/12/04 00:12:02;;;;;;;179.05;46.67;;;;;;;;;;5061181;28;20396;-64
2021/12/04 00:14:30;;;;;;;190.23;49.33;;;;;;;;;;5060614;28;20403;-64
2021/12/04 00:16:56;;;;;;;212.70;49.75;;;;;;;;;;5038427;28;20047;-64
2021/12/04 00:19:23;;;;;;;197.38;46.40;;;;;;;;;;5058338;28;20044;-64
2021/12/04 00:21:49;;;;;;;213.32;48.80;;;;;;;;;;5039788;28;20051;-64
2021/12/04 00:24:16;;;;;;;233.20;50.75;;;;;;;;;;5056867;28;20041;-64
2021/12/04 00:26:42;;;;;;;216.50;49.08;;;;;;;;;;5046455;28;20045;-64
2021/12/04 00:29:08;;;;;;;226.68;50.78;;;;;;;;;;5059552;28;20128;-64
2021/12/04 00:31:35;;;;;;;206.63;49.88;;;;;;;;;;5058300;28;20037;-64
2021/12/04 00:34:02;;;;;;;214.20;49.53;;;;;;;;;;5059452;28;20041;-64
2021/12/04 00:50:09;;;;;;;223.25;52.50;;;;;;;;;;5058230;28;20040;-64
2021/12/04 00:52:36;;;;;;;249.85;53.00;;;;;;;;;;5039358;28;20106;-64
2021/12/04 00:55:04;;;;;;;252.27;58.25;;;;;;;;;;5062148;28;20450;-64
2021/12/04 00:57:30;;;;;;;269.55;58.25;;;;;;;;;;5045748;28;20124;-64
2021/12/04 00:59:56;;;;;;;296.27;61.08;;;;;;;;;;5046968;28;20037;-64
2021/12/04 01:02:23;;;;;;;295.60;59.28;;;;;;;;;;5057678;28;20429;-64
2021/12/04 01:04:49;;;;;;;289.17;60.38;;;;;;;;;;5027065;28;20081;-64
2021/12/04 01:07:15;;;;;;;344.60;61.65;;;;;;;;;;5040730;28;20087;-64
2021/12/04 01:09:43;;;;;;;332.17;60.85;;;;;;;;;;5055348;28;20048;-64
2021/12/04 01:12:09;;;;;;;379.52;62.38;;;;;;;;;;5059289;28;20048;-64
2021/12/04 01:14:36;;;;;;;305.98;57.83;;;;;;;;;;5065170;28;20068;-64
2021/12/04 01:17:03;;;;;;;391.92;60.95;;;;;;;;;;5057963;28;20495;-64
2021/12/04 01:19:30;;;;;;;402.92;64.72;;;;;;;;;;5046502;28;20051;-64
2021/12/04 01:21:57;;;;;;;482.45;66.88;;;;;;;;;;5055383;28;20040;-64
2021/12/04 01:24:23;;;;;;;436.05;65.15;;;;;;;;;;5054781;28;20407;-64
2021/12/04 01:26:50;;;;;;;443.40;61.83;;;;;;;;;;5043525;28;20044;-64
2021/12/04 01:29:16;;;;;;;393.13;61.05;;;;;;;;;;5037545;28;20056;-64
2021/12/04 01:31:43;;;;;;;461.85;65.03;;;;;;;;;;5045433;28;20116;-64
2021/12/04 01:34:10;;;;;;;425.27;61.25;;;;;;;;;;5058690;28;20049;-64
2021/12/04 01:36:36;;;;;;;415.75;65.45;;;;;;;;;;5057980;28;20467;-64
2021/12/04 01:39:04;;;;;;;417.60;63.63;;;;;;;;;;5050478;28;20483;-64
2021/12/04 01:41:30;;;;;;;423.63;62.30;;;;;;;;;;5058483;28;20510;-64
2021/12/04 01:43:58;;;;;;;410.27;62.78;;;;;;;;;;5056640;28;20107;-64
2021/12/04 01:46:25;;;;;;;449.75;66.13;;;;;;;;;;5038298;28;20059;-64
2021/12/04 01:48:51;;;;;;;415.42;63.35;;;;;;;;;;5030952;28;20049;-64
2021/12/04 01:51:17;;;;;;;444.80;64.40;;;;;;;;;;5051584;28;20052;-64
2021/12/04 01:53:43;;;;;;;495.55;65.80;;;;;;;;;;5054919;28;20571;-64
2021/12/04 01:56:09;;;;;;;430.00;62.83;;;;;;;;;;5055498;28;20548;-64
2021/12/04 01:58:36;;;;;;;503.40;65.00;;;;;;;;;;5061755;28;20047;-64
2021/12/04 02:01:02;;;;;;;482.00;63.90;;;;;;;;;;5061019;28;20060;-64
2021/12/04 02:03:28;;;;;;;460.38;62.30;;;;;;;;;;5052638;28;20118;-64
2021/12/04 02:05:55;;;;;;;431.63;60.22;;;;;;;;;;5058673;28;20051;-64
2021/12/04 02:08:23;;;;;;;483.50;63.33;;;;;;;;;;5054449;28;20136;-64
2021/12/04 02:10:51;;;;;;;423.38;59.13;;;;;;;;;;5039202;28;20206;-64
2021/12/04 02:13:17;;;;;;;438.45;60.03;;;;;;;;;;5061633;28;20047;-64
2021/12/04 02:15:44;;;;;;;466.90;61.65;;;;;;;;;;5062166;28;20049;-64
2021/12/04 02:18:10;;;;;;;471.73;63.25;;;;;;;;;;5062497;28;20110;-64
2021/12/04 02:20:36;;;;;;;452.38;62.33;;;;;;;;;;5047949;28;20136;-64
2021/12/04 02:23:03;;;;;;;485.50;63.10;;;;;;;;;;5062284;28;20058;-64
2021/12/04 02:25:30;;;;;;;505.35;66.32;;;;;;;;;;5043721;28;20037;-64
2021/12/04 02:27:56;;;;;;;539.33;66.78;;;;;;;;;;5062420;28;20040;-64
2021/12/04 02:30:24;;;;;;;580.17;69.50;;;;;;;;;;5061442;28;20524;-64
2021/12/04 02:32:51;;;;;;;462.02;59.55;;;;;;;;;;5046476;28;20052;-64
2021/12/04 02:35:17;;;;;;;501.52;65.03;;;;;;;;;;5055285;28;20380;-64
2021/12/04 02:37:44;;;;;;;409.60;56.00;;;;;;;;;;5059313;28;20065;-64
2021/12/04 02:40:11;;;;;;;421.35;56.92;;;;;;;;;;5058997;28;20047;-64
2021/12/04 02:42:38;;;;;;;466.83;62.05;;;;;;;;;;5062906;28;20043;-64
2021/12/04 02:45:06;;;;;;;466.48;61.55;;;;;;;;;;5059755;28;20056;-64
2021/12/04 02:47:32;;;;;;;459.75;59.38;;;;;;;;;;5046476;28;20044;-64
2021/12/04 02:49:58;;;;;;;497.60;60.20;;;;;;;;;;5063549;28;20116;-64
2021/12/04 02:52:25;;;;;;;432.70;58.03;;;;;;;;;;5059938;28;20079;-64
2021/12/04 02:54:51;;;;;;;463.77;58.38;;;;;;;;;;5060054;28;20095;-64
2021/12/04 02:57:19;;;;;;;468.92;59.33;;;;;;;;;;5048973;28;20043;-64
2021/12/04 02:59:46;;;;;;;455.20;61.55;;;;;;;;;;5067896;28;20124;-64
2021/12/04 03:02:18;;;;;;;398.85;55.72;;;;;;;;;;5068538;28;20049;-64
2021/12/04 03:04:46;;;;;;;429.23;56.53;;;;;;;;;;5045708;28;20044;-64
2021/12/04 03:07:13;;;;;;;407.85;56.22;;;;;;;;;;5061406;28;20419;-64
2021/12/04 03:09:39;;;;;;;416.08;56.38;;;;;;;;;;5061689;28;20072;-64
2021/12/04 03:12:06;;;;;;;455.20;56.83;;;;;;;;;;5058420;28;20041;-64
2021/12/04 03:14:33;;;;;;;398.67;55.45;;;;;;;;;;5058284;28;20144;-64
2021/12/04 03:16:59;;;;;;;433.52;57.85;;;;;;;;;;5051022;28;20504;-64
2021/12/04 03:19:26;;;;;;;400.02;54.13;;;;;;;;;;5064780;28;20072;-64
2021/12/04 03:21:52;;;;;;;405.00;54.50;;;;;;;;;;5044769;28;20044;-64
2021/12/04 03:24:19;;;;;;;392.98;54.47;;;;;;;;;;5066425;28;20171;-64
2021/12/04 03:26:49;;;;;;;406.45;55.75;;;;;;;;;;5051012;28;20746;-64
2021/12/04 03:29:18;;;;;;;380.25;53.28;;;;;;;;;;5059173;28;20037;-64
2021/12/04 03:42:27;;;;;;;334.05;51.40;;;;;;;;;;5044474;28;20044;-64
2021/12/04 03:44:53;;;;;;;361.92;51.67;;;;;;;;;;5056848;28;20041;-64
2021/12/04 03:47:20;;;;;;;404.88;53.60;;;;;;;;;;5054887;28;20353;-64
2021/12/04 03:49:47;;;;;;;389.90;53.17;;;;;;;;;;5052859;28;20048;-64
2021/12/04 03:52:14;;;;;;;455.48;55.42;;;;;;;;;;5058562;28;20053;-64
2021/12/04 03:54:40;;;;;;;394.70;53.58;;;;;;;;;;5041228;28;20155;-64
2021/12/04 03:57:07;;;;;;;381.15;50.90;;;;;;;;;;5062402;28;20044;-64
2021/12/04 03:59:34;;;;;;;320.23;50.50;;;;;;;;;;5039553;28;20044;-64
2021/12/04 04:02:00;;;;;;;395.02;52.78;;;;;;;;;;5047644;28;20052;-64
2021/12/04 04:04:26;;;;;;;359.90;50.65;;;;;;;;;;5061756;28;20048;-64
2021/12/04 04:06:52;;;;;;;336.27;49.03;;;;;;;;;;5044148;28;20460;-64
2021/12/04 04:09:19;;;;;;;360.10;49.15;;;;;;;;;;5058149;28;20427;-64
2021/12/04 04:11:47;;;;;;;265.10;45.67;;;;;;;;;;5058305;28;20033;-64
2021/12/04 04:14:13;;;;;;;319.55;49.20;;;;;;;;;;5040112;28;20053;-64
2021/12/04 04:16:40;;;;;;;323.70;48.28;;;;;;;;;;5051690;28;20041;-64
2021/12/04 04:19:07;;;;;;;356.30;50.38;;;;;;;;;;5042466;28;20469;-64
2021/12/04 04:21:39;;;;;;;298.75;45.30;;;;;;;;;;5050267;28;20044;-64
2021/12/04 04:24:07;;;;;;;376.58;49.50;;;;;;;;;;5059048;28;20040;-64
2021/12/04 04:26:34;;;;;;;342.63;49.92;;;;;;;;;;5046898;28;20051;-64
2021/12/04 04:29:00;;;;;;;340.27;51.17;;;;;;;;;;5053253;28;20040;-64
2021/12/04 04:31:27;;;;;;;359.27;49.75;;;;;;;;;;5055326;28;20064;-64
2021/12/04 04:34:00;;;;;;;369.48;47.92;;;;;;;;;;5058439;28;20136;-64
2021/12/04 04:39:24;;;;;;;387.77;49.13;;;;;;;;;;5047061;28;20368;-64
2021/12/04 04:58:45;;;;;;;378.95;48.00;;;;;;;;;;5037035;28;20079;-64
2021/12/04 05:01:22;;;;;;;343.52;46.55;;;;;;;;;;5053444;28;20049;-64
2021/12/04 05:14:38;;;;;;;417.10;48.95;;;;;;;;;;5058279;28;20048;-64
2021/12/04 05:17:08;;;;;;;403.00;50.40;;;;;;;;;;5058910;28;20085;-64
2021/12/04 05:19:45;;;;;;;330.45;48.22;;;;;;;;;;5057794;28;20435;-64
2021/12/04 05:22:13;;;;;;;441.77;50.47;;;;;;;;;;5061977;28;20421;-64
2021/12/04 05:24:39;;;;;;;384.80;47.70;;;;;;;;;;5055810;28;20504;-64
2021/12/04 05:27:06;;;;;;;408.00;49.10;;;;;;;;;;5056123;28;20037;-64
2021/12/04 05:29:32;;;;;;;351.40;46.88;;;;;;;;;;5058067;28;20086;-64
2021/12/04 05:31:58;;;;;;;376.35;49.25;;;;;;;;;;5058097;28;20108;-64
2021/12/04 05:34:25;;;;;;;416.90;51.42;;;;;;;;;;5056354;28;20040;-64
2021/12/04 05:36:51;;;;;;;474.77;50.47;;;;;;;;;;5059017;28;20044;-64
2021/12/04 05:39:17;;;;;;;460.75;51.03;;;;;;;;;;5056238;28;20040;-64
2021/12/04 05:41:43;;;;;;;446.85;50.15;;;;;;;;;;5056726;28;20063;-64
2021/12/04 05:44:10;;;;;;;414.70;50.92;;;;;;;;;;5054771;28;20052;-64
2021/12/04 05:46:40;;;;;;;416.52;50.13;;;;;;;;;;5057871;28;20098;-64
2021/12/04 05:49:14;;;;;;;452.95;52.85;;;;;;;;;;5061671;28;20053;-64
2021/12/04 05:54:33;;;;;;;502.08;54.33;;;;;;;;;;5063491;28;20045;-64
2021/12/04 05:57:00;;;;;;;441.60;51.67;;;;;;;;;;5044321;28;20080;-64
2021/12/04 05:59:27;;;;;;;453.13;52.55;;;;;;;;;;5044008;28;20109;-64
2021/12/04 06:01:53;;;;;;;537.03;56.95;;;;;;;;;;5059656;28;20123;-64
2021/12/04 06:04:19;;;;;;;505.80;52.92;;;;;;;;;;5059796;28;20056;-64
2021/12/04 06:06:46;;;;;;;497.17;56.55;;;;;;;;;;5049634;28;20033;-64
2021/12/04 06:09:12;;;;;;;553.55;54.55;;;;;;;;;;5045014;28;20105;-64
2021/12/04 06:11:39;;;;;;;532.80;56.72;;;;;;;;;;5063820;28;20449;-64
2021/12/04 06:14:05;;;;;;;556.40;55.80;;;;;;;;;;5043585;28;20056;-64
2021/12/04 06:16:31;;;;;;;492.45;55.10;;;;;;;;;;5062056;28;20044;-64
2021/12/04 06:18:59;;;;;;;527.03;54.25;;;;;;;;;;5061811;28;20115;-64
2021/12/04 06:24:10;;;;;;;455.30;52.88;;;;;;;;;;5047512;28;20084;-64
2021/12/04 06:26:36;;;;;;;443.83;51.03;;;;;;;;;;5040827;28;20041;-64
2021/12/04 06:29:03;;;;;;;487.00;54.80;;;;;;;;;;5061291;28;20048;-64
2021/12/04 06:31:31;;;;;;;503.35;55.30;;;;;;;;;;5060540;28;20761;-64
2021/12/04 06:33:57;;;;;;;397.15;51.58;;;;;;;;;;5059677;28;20103;-64
2021/12/04 06:36:25;;;;;;;485.55;56.13;;;;;;;;;;5060405;28;20037;-64
2021/12/04 06:38:51;;;;;;;465.50;51.33;;;;;;;;;;5060489;28;20041;-64
2021/12/04 06:41:18;;;;;;;488.83;53.88;;;;;;;;;;5051248;28;20059;-64
2021/12/04 06:43:48;;;;;;;468.60;51.50;;;;;;;;;;5060207;28;20076;-64
2021/12/04 06:46:16;;;;;;;371.85;48.17;;;;;;;;;;5060216;28;20063;-64
2021/12/04 06:48:53;;;;;;;456.33;52.70;;;;;;;;;;5028215;28;20040;-64
2021/12/04 06:51:25;;;;;;;480.83;53.25;;;;;;;;;;5063566;28;20061;-64
2021/12/04 06:54:03;;;;;;;513.13;56.55;;;;;;;;;;5054645;28;20185;-65
2021/12/04 06:56:34;;;;;;;468.63;52.30;;;;;;;;;;5059833;28;20101;-64
2021/12/04 06:59:05;;;;;;;445.40;50.45;;;;;;;;;;5064711;28;20067;-64
2021/12/04 07:01:31;;;;;;;467.63;52.97;;;;;;;;;;5058382;28;20464;-64
2021/12/04 07:03:57;;;;;;;497.80;54.63;;;;;;;;;;5060447;28;20487;-64
2021/12/04 07:06:23;;;;;;;473.00;51.70;;;;;;;;;;5058848;28;20055;-64
2021/12/04 07:08:51;;;;;;;490.20;53.92;;;;;;;;;;5052924;28;20041;-64
2021/12/04 07:11:17;;;;;;;472.60;51.03;;;;;;;;;;5027105;28;20049;-64
2021/12/04 07:13:43;;;;;;;502.10;54.40;;;;;;;;;;5058172;28;20111;-64
2021/12/04 07:16:12;;;;;;;497.13;53.08;;;;;;;;;;5060586;28;20048;-64
2021/12/04 07:18:39;;;;;;;473.40;53.20;;;;;;;;;;5049838;28;20041;-64
2021/12/04 07:21:05;;;;;;;476.83;51.70;;;;;;;;;;5061374;28;20101;-70
2021/12/04 07:23:31;;;;;;;476.10;51.78;;;;;;;;;;5046487;28;20047;-64
2021/12/04 07:25:58;;;;;;;400.30;49.53;;;;;;;;;;5056001;28;20466;-64
2021/12/04 07:28:25;;;;;;;409.13;49.80;;;;;;;;;;5039865;28;20072;-64
2021/12/04 07:30:51;;;;;;;415.48;50.05;;;;;;;;;;5047194;28;20052;-63
2021/12/04 07:33:17;;;;;;;417.52;48.30;;;;;;;;;;5053826;28;20082;-64
2021/12/04 07:35:44;;;;;;;466.38;51.03;;;;;;;;;;5059056;28;20125;-64
2021/12/04 07:38:10;;;;;;;430.77;49.15;;;;;;;;;;5060979;28;20071;-63
2021/12/04 07:40:38;;;;;;;403.02;46.28;;;;;;;;;;5043697;28;20048;-64
2021/12/04 07:43:04;;;;;;;487.83;51.40;;;;;;;;;;5061423;28;20431;-64
2021/12/04 07:45:30;;;;;;;471.60;50.33;;;;;;;;;;5059651;28;20042;-63
2021/12/04 07:47:57;;;;;;;434.67;48.85;;;;;;;;;;5057511;28;20040;-64
2021/12/04 07:50:23;;;;;;;426.55;48.08;;;;;;;;;;5055986;28;20109;-64
2021/12/04 07:52:49;;;;;;;435.73;50.38;;;;;;;;;;5057180;28;20060;-63
2021/12/04 07:55:16;;;;;;;419.02;48.83;;;;;;;;;;5047475;28;20059;-64
2021/12/04 07:57:42;;;;;;;412.58;46.90;;;;;;;;;;5042559;28;20044;-64
2021/12/04 08:00:09;;;;;;;359.10;44.15;;;;;;;;;;5053517;28;20045;-63
2021/12/04 08:02:36;;;;;;;394.95;45.85;;;;;;;;;;5054703;28;20049;-64
2021/12/04 08:05:02;;;;;;;351.02;44.33;;;;;;;;;;5047789;28;20181;-64
2021/12/04 08:07:29;;;;;;;297.38;40.17;;;;;;;;;;5060759;28;20154;-63
2021/12/04 08:09:55;;;;;;;402.77;44.60;;;;;;;;;;5044846;28;20036;-64
2021/12/04 08:12:21;;;;;;;324.45;41.28;;;;;;;;;;5053149;28;20494;-64
2021/12/04 08:14:47;;;;;;;346.60;42.70;;;;;;;;;;5051911;28;20060;-64
2021/12/04 08:17:14;;;;;;;316.65;42.03;;;;;;;;;;5060072;28;20507;-64
2021/12/04 08:19:40;;;;;;;300.08;41.33;;;;;;;;;;5039430;28;20407;-64
2021/12/04 08:22:06;;;;;;;312.67;40.28;;;;;;;;;;5047334;28;20052;-64
2021/12/04 08:24:32;;;;;;;364.25;43.55;;;;;;;;;;5045282;28;20055;-64
2021/12/04 08:26:59;;;;;;;253.70;37.78;;;;;;;;;;5064178;28;20045;-64
2021/12/04 08:29:25;;;;;;;244.30;36.28;;;;;;;;;;5041561;28;20040;-63
2021/12/04 08:31:52;;;;;;;294.58;38.75;;;;;;;;;;5060617;28;20044;-63
2021/12/04 08:34:18;;;;;;;243.75;37.17;;;;;;;;;;5058243;28;20637;-63
2021/12/04 08:36:45;;;;;;;286.67;38.22;;;;;;;;;;5059911;28;20040;-64
2021/12/04 08:39:11;;;;;;;282.67;39.78;;;;;;;;;;5061562;28;20472;-63
2021/12/04 08:41:37;;;;;;;346.38;41.40;;;;;;;;;;5064364;28;20120;-63
2021/12/04 08:44:04;;;;;;;360.02;43.13;;;;;;;;;;5056172;28;20082;-64
2021/12/04 08:46:31;;;;;;;343.30;40.88;;;;;;;;;;5059809;28;20166;-63
2021/12/04 08:48:58;;;;;;;311.45;40.88;;;;;;;;;;5061595;28;20110;-63
2021/12/04 08:51:24;;;;;;;339.13;41.70;;;;;;;;;;5061942;28;20167;-63
2021/12/04 08:53:51;;;;;;;296.33;39.80;;;;;;;;;;5062821;28;20211;-64
2021/12/04 08:56:17;;;;;;;299.33;40.65;;;;;;;;;;5060075;28;20132;-63
2021/12/04 08:58:45;;;;;;;310.45;39.88;;;;;;;;;;5057029;28;20040;-63
2021/12/04 09:01:13;;;;;;;314.95;38.97;;;;;;;;;;5061638;28;21497;-63
2021/12/04 09:03:41;;;;;;;302.52;38.00;;;;;;;;;;5063341;28;20359;-64
2021/12/04 09:06:08;;;;;;;304.00;40.58;;;;;;;;;;5039281;28;20480;-63
2021/12/04 09:08:35;;;;;;;301.75;39.65;;;;;;;;;;5067597;28;20040;-67
2021/12/04 09:11:05;;;;;;;297.02;38.35;;;;;;;;;;5043451;28;20219;-63
2021/12/04 09:13:32;;;;;;;259.35;37.22;;;;;;;;;;5056582;28;20051;-63
2021/12/04 09:15:59;;;;;;;292.33;40.55;;;;;;;;;;5059753;28;20481;-63
2021/12/04 09:18:25;;;;;;;294.27;40.75;;;;;;;;;;5042047;28;20132;-62
2021/12/04 09:20:53;;;;;;;307.65;40.92;;;;;;;;;;5056596;28;20044;-62
2021/12/04 09:23:20;;;;;;;315.27;42.08;;;;;;;;;;5060026;28;20387;-62
2021/12/04 09:25:51;;;;;;;287.15;38.63;;;;;;;;;;5056872;28;20033;-62
2021/12/04 09:28:22;;;;;;;240.73;37.83;;;;;;;;;;5060216;28;20053;-62
2021/12/04 09:31:05;;;;;;;245.82;39.03;;;;;;;;;;5043663;28;20076;-62
2021/12/04 10:00:51;;;;;;;248.70;39.47;;;;;;;;;;5054067;28;20051;-62
2021/12/04 10:13:55;;;;;;;208.15;36.28;;;;;;;;;;5045047;28;20049;-63
2021/12/04 10:19:03;;;;;;;169.43;32.20;;;;;;;;;;5039761;28;20511;-62
2021/12/04 10:21:39;;;;;;;133.18;28.73;;;;;;;;;;5041346;28;20448;-62
2021/12/04 10:35:00;;;;;;;188.07;33.83;;;;;;;;;;5063930;28;20530;-63
2021/12/04 10:37:28;;;;;;;167.15;32.85;;;;;;;;;;5066847;28;20095;-63
2021/12/04 10:39:57;;;;;;;169.43;33.22;;;;;;;;;;5066270;28;20407;-63
2021/12/04 10:42:34;;;;;;;134.07;30.67;;;;;;;;;;5041522;28;20068;-63
2021/12/04 10:45:01;;;;;;;134.43;31.92;;;;;;;;;;5063462;28;21265;-63
2021/12/04 10:47:28;;;;;;;134.55;28.90;;;;;;;;;;5057414;28;20048;-63
2021/12/04 10:55:14;;;;;;;153.52;32.10;;;;;;;;;;5068918;28;20138;-63
2021/12/04 11:00:23;;;;;;;133.00;30.02;;;;;;;;;;5060442;28;20040;-63
2021/12/04 11:02:57;;;;;;;131.90;29.48;;;;;;;;;;5056295;28;20059;-63
2021/12/04 11:19:14;;;;;;;126.38;28.45;;;;;;;;;;5060384;28;20052;-67
2021/12/04 11:22:00;;;;;;;116.00;29.92;;;;;;;;;;5050650;28;20448;-63
2021/12/04 11:25:07;;;;;;;117.95;28.73;;;;;;;;;;5060141;28;20044;-62
2021/12/04 11:27:45;;;;;;;125.50;29.20;;;;;;;;;;5059343;28;20098;-62
2021/12/04 11:36:09;;;;;;;131.10;30.55;;;;;;;;;;5062674;28;20053;-63
2021/12/04 11:38:24;;;;;;;130.45;28.48;;;;;;;;;;5038136;28;20090;-63
2021/12/04 11:41:13;;;;;;;115.78;28.17;;;;;;;;;;5059276;28;20133;-62
2021/12/04 11:43:52;;;;;;;143.77;29.02;;;;;;;;;;5054966;28;20048;-62
2021/12/04 11:46:24;;;;;;;129.95;28.90;;;;;;;;;;5048938;28;20052;-62
2021/12/04 11:48:50;;;;;;;153.63;31.90;;;;;;;;;;5049532;28;20504;-62
2021/12/04 11:51:19;;;;;;;121.10;29.73;;;;;;;;;;5052533;28;20132;-63
2021/12/04 11:53:45;;;;;;;107.13;27.77;;;;;;;;;;5039806;28;20491;-62
2021/12/04 11:56:14;;;;;;;85.57;26.27;;;;;;;;;;5052107;28;21281;-62
2021/12/04 11:58:42;;;;;;;90.60;27.67;;;;;;;;;;5059915;28;20464;-62
2021/12/04 12:01:19;;;;;;;100.03;25.98;;;;;;;;;;5058904;28;20043;-63
2021/12/04 12:03:52;;;;;;;88.65;25.27;;;;;;;;;;5051503;28;21376;-64
2021/12/04 12:06:27;;;;;;;102.28;27.33;;;;;;;;;;5055473;28;20045;-62
2021/12/04 12:09:00;;;;;;;91.82;27.02;;;;;;;;;;5044001;28;20131;-62
2021/12/04 12:11:27;;;;;;;79.40;24.75;;;;;;;;;;5043351;28;20061;-62
2021/12/04 12:14:05;;;;;;;78.47;25.20;;;;;;;;;;5047479;28;20052;-62
2021/12/04 12:16:36;;;;;;;84.18;25.08;;;;;;;;;;5065839;28;20055;-62
2021/12/04 12:19:13;;;;;;;82.75;24.48;;;;;;;;;;5063580;28;20045;-62
2021/12/04 12:21:53;;;;;;;76.65;25.30;;;;;;;;;;5041143;28;20057;-63
2021/12/04 12:27:19;;;;;;;94.13;26.33;;;;;;;;;;5065032;28;20037;-63
2021/12/04 12:32:49;;;;;;;88.53;25.65;;;;;;;;;;5061479;28;20037;-63
2021/12/04 12:38:08;;;;;;;88.68;25.98;;;;;;;;;;5040943;28;20496;-63
2021/12/04 12:40:35;;;;;;;88.63;26.85;;;;;;;;;;5058034;28;20029;-63
2021/12/04 12:43:09;;;;;;;77.40;26.00;;;;;;;;;;5057430;28;20044;-63
2021/12/04 12:45:36;;;;;;;83.80;25.15;;;;;;;;;;5051148;28;20479;-63
2021/12/04 12:48:05;;;;;;;95.22;25.52;;;;;;;;;;5060268;28;20041;-63
2021/12/04 12:50:37;;;;;;;94.47;26.05;;;;;;;;;;5061641;28;20178;-63
2021/12/04 12:53:05;;;;;;;88.97;25.83;;;;;;;;;;5057629;28;20140;-63
2021/12/04 12:55:34;;;;;;;90.07;24.95;;;;;;;;;;5058670;28;20041;-63
2021/12/04 12:58:11;;;;;;;83.63;25.83;;;;;;;;;;5038960;28;20488;-63
2021/12/04 13:11:52;;;;;;;88.20;26.27;;;;;;;;;;5053909;28;20400;-62
2021/12/04 13:14:20;;;;;;;78.45;26.23;;;;;;;;;;5059717;28;20067;-62
2021/12/04 13:16:49;;;;;;;70.35;24.92;;;;;;;;;;5059228;28;20429;-62
2021/12/04 13:19:17;;;;;;;75.22;24.60;;;;;;;;;;5059593;28;20049;-62
2021/12/04 13:35:56;;;;;;;68.97;24.95;;;;;;;;;;5100799;27;20158;-61
2021/12/04 13:38:24;;;;;;;82.22;25.27;;;;;;;;;;5079301;28;20064;-62
2021/12/04 13:40:52;;;;;;;74.25;25.63;;;;;;;;;;5080561;28;20059;-63
2021/12/04 13:43:19;;;;;;;62.10;24.33;;;;;;;;;;5065517;28;20545;-61
2021/12/04 13:45:46;;;;;;;64.50;24.85;;;;;;;;;;5079216;28;20431;-61
2021/12/04 13:48:12;;;;;;;60.47;22.63;;;;;;;;;;5081627;28;20044;-61
2021/12/04 13:53:08;;;;;;;61.45;23.65;;;;;;;;;;5078441;28;20458;-61
2021/12/04 13:55:38;;;;;;;56.60;23.23;;;;;;;;;;5075230;28;20041;-61
2021/12/04 13:58:05;;;;;;;60.28;23.77;;;;;;;;;;5080150;28;20043;-62
2021/12/04 14:00:31;;;;;;;64.75;25.10;;;;;;;;;;5078229;28;20106;-62
2021/12/04 14:02:57;;;;;;;62.92;23.67;;;;;;;;;;5055501;28;20056;-61
2021/12/04 14:05:25;;;;;;;62.78;24.48;;;;;;;;;;5074773;28;20036;-62
2021/12/04 14:07:53;;;;;;;61.50;23.10;;;;;;;;;;5080573;28;20139;-61
2021/12/04 14:10:21;;;;;;;65.68;21.88;;;;;;;;;;5077105;28;20428;-62
2021/12/04 14:12:47;;;;;;;55.13;22.38;;;;;;;;;;5058879;28;20040;-62
2021/12/04 14:15:15;;;;;;;71.78;25.27;;;;;;;;;;5075646;28;20048;-61
2021/12/04 14:17:41;;;;;;;65.15;24.00;;;;;;;;;;5060176;28;20040;-62
2021/12/04 14:20:08;;;;;;;68.55;24.95;;;;;;;;;;5076510;28;20055;-62
2021/12/04 14:22:35;;;;;;;54.28;22.40;;;;;;;;;;5076139;28;20486;-62
2021/12/04 14:25:02;;;;;;;63.05;22.50;;;;;;;;;;5059277;28;20130;-61
2021/12/04 14:27:30;;;;;;;63.65;22.67;;;;;;;;;;5080320;28;20044;-62
2021/12/04 14:30:00;;;;;;;55.78;22.10;;;;;;;;;;5076027;28;20136;-62
2021/12/04 14:32:28;;;;;;;59.22;20.83;;;;;;;;;;5076470;28;20045;-61
2021/12/04 14:34:56;;;;;;;69.95;22.95;;;;;;;;;;5055066;28;20397;-62
2021/12/04 14:37:23;;;;;;;67.00;25.73;;;;;;;;;;5053248;28;20036;-62
2021/12/04 14:39:50;;;;;;;75.95;24.77;;;;;;;;;;5056302;28;20131;-62
2021/12/04 14:42:19;;;;;;;71.68;24.48;;;;;;;;;;5056465;28;20261;-62
2021/12/04 14:44:48;;;;;;;72.25;24.98;;;;;;;;;;5059271;28;20436;-61
2021/12/04 14:47:15;;;;;;;79.80;26.08;;;;;;;;;;5040357;28;20079;-62
2021/12/04 14:49:43;;;;;;;89.55;25.65;;;;;;;;;;5040589;28;20049;-62
2021/12/04 14:52:16;;;;;;;98.78;30.48;;;;;;;;;;5035295;28;20034;-64
2021/12/04 14:54:42;;;;;;;102.63;28.27;;;;;;;;;;5046823;28;20052;-64
2021/12/04 14:57:14;;;;;;;105.05;28.02;;;;;;;;;;5048472;28;20164;-64
2021/12/04 14:59:40;;;;;;;105.85;29.63;;;;;;;;;;5044320;28;20045;-63
2021/12/04 15:02:21;;;;;;;109.32;30.13;;;;;;;;;;5046537;28;20053;-64
2021/12/04 15:04:47;;;;;;;122.68;30.35;;;;;;;;;;5042045;28;20203;-64
2021/12/04 15:07:22;;;;;;;124.88;30.02;;;;;;;;;;5042424;28;20045;-63
2021/12/04 15:09:48;;;;;;;132.15;32.45;;;;;;;;;;5045324;28;20144;-62
2021/12/04 15:12:33;;;;;;;144.40;31.65;;;;;;;;;;5038531;28;20132;-63
2021/12/04 15:15:02;;;;;;;138.65;31.63;;;;;;;;;;5046012;28;20153;-63
2021/12/04 15:17:28;;;;;;;147.85;33.92;;;;;;;;;;5032330;28;20041;-63
2021/12/04 15:19:59;;;;;;;178.98;34.60;;;;;;;;;;5032929;28;20501;-63
2021/12/04 15:22:32;;;;;;;162.23;34.67;;;;;;;;;;5035363;28;20120;-63
2021/12/04 15:24:58;;;;;;;160.68;33.10;;;;;;;;;;5033420;28;20052;-63
2021/12/04 15:27:27;;;;;;;179.93;36.03;;;;;;;;;;5048450;28;20489;-63
2021/12/04 15:29:54;;;;;;;193.93;36.05;;;;;;;;;;5052749;28;20052;-63
2021/12/04 15:32:22;;;;;;;165.90;34.92;;;;;;;;;;5051008;28;20033;-63
2021/12/04 15:34:53;;;;;;;173.77;36.38;;;;;;;;;;5044819;28;20060;-63
2021/12/04 15:37:26;;;;;;;180.20;35.38;;;;;;;;;;5039691;28;20037;-63
2021/12/04 15:39:53;;;;;;;184.35;35.10;;;;;;;;;;5053443;28;20495;-63
2021/12/04 15:42:29;;;;;;;166.80;36.05;;;;;;;;;;5040193;28;20053;-63
2021/12/04 15:45:21;;;;;;;150.70;34.13;;;;;;;;;;5072436;28;20054;-63
2021/12/04 15:48:05;;;;;;;158.60;35.50;;;;;;;;;;5071958;28;20048;-63
2021/12/04 15:50:50;;;;;;;152.75;34.33;;;;;;;;;;5054243;28;20048;-63
2021/12/04 15:53:17;;;;;;;163.68;34.25;;;;;;;;;;5052936;28;20087;-63
2021/12/04 15:55:47;;;;;;;167.43;33.20;;;;;;;;;;5053404;28;20202;-63
2021/12/04 15:58:15;;;;;;;160.57;33.92;;;;;;;;;;5052636;28;20037;-63
2021/12/04 16:00:43;;;;;;;168.85;35.97;;;;;;;;;;5055995;28;20052;-63
2021/12/04 16:03:12;;;;;;;161.88;36.40;;;;;;;;;;5053554;28;20060;-63
2021/12/04 16:05:41;;;;;;;161.35;34.65;;;;;;;;;;5053300;28;20398;-63
2021/12/04 16:08:14;;;;;;;177.15;35.45;;;;;;;;;;5052646;28;20040;-63
2021/12/04 16:10:41;;;;;;;172.38;35.60;;;;;;;;;;5054980;28;20547;-63
2021/12/04 16:13:08;;;;;;;167.20;35.38;;;;;;;;;;5037061;28;20088;-63
2021/12/04 16:15:35;;;;;;;168.57;37.97;;;;;;;;;;5034572;28;20049;-63
2021/12/04 16:18:01;;;;;;;152.35;34.85;;;;;;;;;;5057237;28;20049;-63
2021/12/04 16:20:30;;;;;;;178.07;36.50;;;;;;;;;;5052500;28;20045;-63
2021/12/04 16:22:58;;;;;;;167.98;34.22;;;;;;;;;;5064864;28;20052;-63
2021/12/04 16:25:26;;;;;;;170.80;32.65;;;;;;;;;;5052955;28;20045;-63
2021/12/04 16:30:32;;;;;;;147.40;34.25;;;;;;;;;;5066999;28;20041;-63
2021/12/04 16:33:14;;;;;;;133.73;32.47;;;;;;;;;;5071700;28;20052;-63
2021/12/04 16:35:45;;;;;;;135.32;32.83;;;;;;;;;;5054438;28;20064;-63
2021/12/04 16:38:13;;;;;;;140.52;31.63;;;;;;;;;;5052806;28;20122;-63
2021/12/04 16:40:41;;;;;;;147.60;31.30;;;;;;;;;;5067897;28;20154;-63
2021/12/04 16:43:14;;;;;;;153.07;32.83;;;;;;;;;;5070508;28;20048;-63
2021/12/04 16:45:44;;;;;;;148.93;32.08;;;;;;;;;;5065692;28;20041;-63
2021/12/04 16:48:12;;;;;;;133.02;30.58;;;;;;;;;;5039625;28;20037;-63
2021/12/04 16:56:23;;;;;;;111.90;29.90;;;;;;;;;;5068934;28;20091;-63
2021/12/04 16:58:49;;;;;;;138.57;30.45;;;;;;;;;;5034430;28;20052;-63
2021/12/04 17:01:16;;;;;;;128.98;29.92;;;;;;;;;;5034281;28;20105;-63
2021/12/04 17:03:43;;;;;;;130.98;31.02;;;;;;;;;;5055327;28;20451;-63
2021/12/04 17:06:09;;;;;;;121.53;30.25;;;;;;;;;;5042319;28;20388;-63
2021/12/04 17:08:35;;;;;;;125.53;31.35;;;;;;;;;;5063728;28;20171;-63
2021/12/04 17:11:02;;;;;;;105.82;29.35;;;;;;;;;;5033579;28;20052;-63
2021/12/04 17:13:28;;;;;;;118.30;29.35;;;;;;;;;;5064720;28;20041;-63
2021/12/04 17:15:55;;;;;;;133.05;31.00;;;;;;;;;;5070256;28;20463;-63
2021/12/04 17:18:24;;;;;;;112.72;28.45;;;;;;;;;;5052460;28;20040;-63